sensor_id;sensor_type;location;lat;lon;timestamp;pressure;altitude;pressure_sealevel;temperature;humidity
52927;BME280;40783;49.710;8.842;2022-09-01T00:02:23;99394.16;;;17.47;70.55
52927;BME280;40783;49.710;8.842;2022-09-01T00:04:52;99399.53;;;17.41;70.78
52927;BME280;40783;49.710;8.842;2022-09-01T00:07:23;99402.38;;;17.32;70.88
52927;BME280;40783;49.710;8.842;2022-09-01T00:09:49;99404.94;;;17.41;70.85
52927;BME280;40783;49.710;8.842;2022-09-01T00:12:15;99413.72;;;17.21;72.90
52927;BME280;40783;49.710;8.842;2022-09-01T00:14:41;99393.78;;;17.22;71.85
52927;BME280;40783;49.710;8.842;2022-09-01T00:17:11;99398.53;;;17.20;71.67
52927;BME280;40783;49.710;8.842;2022-09-01T00:19:38;99397.41;;;17.36;70.20
52927;BME280;40783;49.710;8.842;2022-09-01T00:22:05;99398.91;;;17.39;71.10
52927;BME280;40783;49.710;8.842;2022-09-01T00:24:31;99403.66;;;17.37;71.31
52927;BME280;40783;49.710;8.842;2022-09-01T00:26:56;99402.25;;;17.41;71.13
52927;BME280;40783;49.710;8.842;2022-09-01T00:29:24;99400.44;;;17.48;70.11
52927;BME280;40783;49.710;8.842;2022-09-01T00:31:50;99395.31;;;17.31;71.30
52927;BME280;40783;49.710;8.842;2022-09-01T00:34:16;99402.69;;;17.23;72.04
52927;BME280;40783;49.710;8.842;2022-09-01T00:36:44;99391.31;;;17.27;71.24
52927;BME280;40783;49.710;8.842;2022-09-01T00:39:10;99395.84;;;16.98;73.10
52927;BME280;40783;49.710;8.842;2022-09-01T00:41:38;99396.88;;;16.97;73.08
52927;BME280;40783;49.710;8.842;2022-09-01T00:44:09;99397.13;;;17.02;72.06
52927;BME280;40783;49.710;8.842;2022-09-01T00:46:49;99390.56;;;17.12;72.39
52927;BME280;40783;49.710;8.842;2022-09-01T00:51:43;99383.09;;;17.14;71.96
52927;BME280;40783;49.710;8.842;2022-09-01T00:54:12;99372.28;;;17.14;71.46
52927;BME280;40783;49.710;8.842;2022-09-01T00:56:41;99383.34;;;17.19;72.34
52927;BME280;40783;49.710;8.842;2022-09-01T00:59:08;99376.94;;;16.98;72.65
52927;BME280;40783;49.710;8.842;2022-09-01T01:01:34;99383.38;;;16.97;73.22
52927;BME280;40783;49.710;8.842;2022-09-01T01:04:04;99370.91;;;16.96;74.28
52927;BME280;40783;49.710;8.842;2022-09-01T01:06:30;99373.34;;;16.91;72.94
52927;BME280;40783;49.710;8.842;2022-09-01T01:08:58;99373.38;;;16.76;75.07
52927;BME280;40783;49.710;8.842;2022-09-01T01:11:27;99366.53;;;16.73;75.55
52927;BME280;40783;49.710;8.842;2022-09-01T01:14:05;99372.81;;;16.81;74.56
52927;BME280;40783;49.710;8.842;2022-09-01T01:16:38;99380.13;;;15.92;79.19
52927;BME280;40783;49.710;8.842;2022-09-01T01:25:42;99379.00;;;16.74;74.56
52927;BME280;40783;49.710;8.842;2022-09-01T01:30:42;99373.94;;;16.28;77.32
52927;BME280;40783;49.710;8.842;2022-09-01T01:33:10;99380.38;;;16.49;75.16
52927;BME280;40783;49.710;8.842;2022-09-01T01:35:36;99377.19;;;16.60;74.59
52927;BME280;40783;49.710;8.842;2022-09-01T01:38:04;99379.75;;;16.68;74.28
52927;BME280;40783;49.710;8.842;2022-09-01T01:40:32;99376.69;;;16.71;74.18
52927;BME280;40783;49.710;8.842;2022-09-01T01:43:00;99366.91;;;16.70;73.95
52927;BME280;40783;49.710;8.842;2022-09-01T01:45:27;99371.63;;;16.46;74.83
52927;BME280;40783;49.710;8.842;2022-09-01T01:47:53;99369.28;;;16.58;74.23
52927;BME280;40783;49.710;8.842;2022-09-01T01:50:21;99373.47;;;16.61;74.12
52927;BME280;40783;49.710;8.842;2022-09-01T01:52:47;99368.06;;;16.61;73.51
52927;BME280;40783;49.710;8.842;2022-09-01T01:55:13;99373.47;;;16.61;73.36
52927;BME280;40783;49.710;8.842;2022-09-01T01:57:44;99374.69;;;16.58;73.17
52927;BME280;40783;49.710;8.842;2022-09-01T02:00:16;99373.31;;;16.47;73.94
52927;BME280;40783;49.710;8.842;2022-09-01T02:02:46;99378.22;;;16.37;74.69
52927;BME280;40783;49.710;8.842;2022-09-01T02:05:37;99375.28;;;16.02;75.60
52927;BME280;40783;49.710;8.842;2022-09-01T02:08:08;99368.97;;;15.65;77.65
52927;BME280;40783;49.710;8.842;2022-09-01T02:10:38;99369.53;;;16.05;74.87
52927;BME280;40783;49.710;8.842;2022-09-01T02:13:05;99380.03;;;16.00;75.04
52927;BME280;40783;49.710;8.842;2022-09-01T02:15:36;99376.97;;;15.73;76.69
52927;BME280;40783;49.710;8.842;2022-09-01T02:18:09;99379.75;;;15.95;75.58
52927;BME280;40783;49.710;8.842;2022-09-01T02:20:35;99368.59;;;15.98;75.16
52927;BME280;40783;49.710;8.842;2022-09-01T02:23:01;99375.09;;;16.19;74.02
52927;BME280;40783;49.710;8.842;2022-09-01T02:25:36;99377.41;;;16.22;73.35
52927;BME280;40783;49.710;8.842;2022-09-01T02:28:03;99369.38;;;16.28;73.97
52927;BME280;40783;49.710;8.842;2022-09-01T02:30:34;99372.66;;;16.24;73.47
52927;BME280;40783;49.710;8.842;2022-09-01T02:33:04;99366.88;;;16.27;73.60
52927;BME280;40783;49.710;8.842;2022-09-01T02:35:32;99364.84;;;16.29;73.29
52927;BME280;40783;49.710;8.842;2022-09-01T02:38:03;99368.16;;;16.31;73.57
52927;BME280;40783;49.710;8.842;2022-09-01T02:40:32;99372.00;;;16.22;73.56
52927;BME280;40783;49.710;8.842;2022-09-01T02:42:58;99362.88;;;16.23;73.89
52927;BME280;40783;49.710;8.842;2022-09-01T02:45:26;99365.84;;;16.28;73.40
52927;BME280;40783;49.710;8.842;2022-09-01T02:47:54;99364.69;;;15.85;75.06
52927;BME280;40783;49.710;8.842;2022-09-01T02:50:23;99359.84;;;15.96;74.92
52927;BME280;40783;49.710;8.842;2022-09-01T02:52:51;99358.28;;;16.01;74.23
52927;BME280;40783;49.710;8.842;2022-09-01T02:55:19;99360.78;;;16.03;73.96
52927;BME280;40783;49.710;8.842;2022-09-01T02:57:50;99359.59;;;16.06;74.12
52927;BME280;40783;49.710;8.842;2022-09-01T03:00:20;99358.34;;;16.08;72.98
52927;BME280;40783;49.710;8.842;2022-09-01T03:02:53;99351.59;;;15.82;74.47
52927;BME280;40783;49.710;8.842;2022-09-01T03:05:26;99354.84;;;15.93;73.88
52927;BME280;40783;49.710;8.842;2022-09-01T03:07:58;99356.78;;;15.99;73.22
52927;BME280;40783;49.710;8.842;2022-09-01T03:10:29;99357.44;;;16.01;73.28
52927;BME280;40783;49.710;8.842;2022-09-01T03:12:59;99354.56;;;16.02;73.16
52927;BME280;40783;49.710;8.842;2022-09-01T03:15:28;99354.47;;;15.96;73.87
52927;BME280;40783;49.710;8.842;2022-09-01T03:17:54;99348.25;;;15.95;73.56
52927;BME280;40783;49.710;8.842;2022-09-01T03:20:22;99351.50;;;15.91;73.91
52927;BME280;40783;49.710;8.842;2022-09-01T03:22:48;99350.66;;;15.90;74.24
52927;BME280;40783;49.710;8.842;2022-09-01T03:25:14;99342.94;;;15.72;75.70
52927;BME280;40783;49.710;8.842;2022-09-01T03:27:39;99344.84;;;15.86;74.35
52927;BME280;40783;49.710;8.842;2022-09-01T03:30:06;99350.94;;;15.80;74.68
52927;BME280;40783;49.710;8.842;2022-09-01T03:32:31;99345.81;;;15.85;74.06
52927;BME280;40783;49.710;8.842;2022-09-01T03:34:59;99345.53;;;15.80;74.54
52927;BME280;40783;49.710;8.842;2022-09-01T03:37:25;99334.75;;;15.80;74.19
52927;BME280;40783;49.710;8.842;2022-09-01T03:39:51;99340.91;;;15.74;74.68
52927;BME280;40783;49.710;8.842;2022-09-01T03:42:16;99345.75;;;15.34;77.06
52927;BME280;40783;49.710;8.842;2022-09-01T03:44:49;99343.94;;;15.26;76.21
52927;BME280;40783;49.710;8.842;2022-09-01T03:47:16;99342.94;;;15.42;75.81
52927;BME280;40783;49.710;8.842;2022-09-01T03:49:42;99345.75;;;15.34;76.14
52927;BME280;40783;49.710;8.842;2022-09-01T03:52:08;99343.22;;;15.47;75.48
52927;BME280;40783;49.710;8.842;2022-09-01T03:54:37;99342.31;;;15.55;75.33
52927;BME280;40783;49.710;8.842;2022-09-01T03:57:02;99335.41;;;15.67;74.65
52927;BME280;40783;49.710;8.842;2022-09-01T03:59:31;99337.84;;;15.62;74.50
52927;BME280;40783;49.710;8.842;2022-09-01T04:01:57;99337.19;;;15.75;74.12
52927;BME280;40783;49.710;8.842;2022-09-01T04:04:27;99340.72;;;15.61;74.57
52927;BME280;40783;49.710;8.842;2022-09-01T04:06:57;99342.00;;;15.65;74.39
52927;BME280;40783;49.710;8.842;2022-09-01T04:09:24;99340.81;;;15.52;74.72
52927;BME280;40783;49.710;8.842;2022-09-01T04:11:49;99348.88;;;15.52;74.98
52927;BME280;40783;49.710;8.842;2022-09-01T04:14:18;99348.88;;;15.52;75.50
52927;BME280;40783;49.710;8.842;2022-09-01T04:16:46;99352.38;;;15.08;77.64
52927;BME280;40783;49.710;8.842;2022-09-01T04:19:33;99352.69;;;15.28;76.62
52927;BME280;40783;49.710;8.842;2022-09-01T04:22:03;99348.56;;;15.02;77.67
52927;BME280;40783;49.710;8.842;2022-09-01T04:24:30;99350.19;;;15.26;76.71
52927;BME280;40783;49.710;8.842;2022-09-01T04:26:58;99345.53;;;15.20;76.88
52927;BME280;40783;49.710;8.842;2022-09-01T04:29:28;99347.56;;;15.18;77.17
52927;BME280;40783;49.710;8.842;2022-09-01T04:31:56;99352.31;;;15.31;76.49
52927;BME280;40783;49.710;8.842;2022-09-01T04:34:29;99358.94;;;15.28;76.64
52927;BME280;40783;49.710;8.842;2022-09-01T04:37:06;99354.56;;;15.27;76.44
52927;BME280;40783;49.710;8.842;2022-09-01T04:39:32;99353.06;;;15.40;75.87
52927;BME280;40783;49.710;8.842;2022-09-01T04:41:57;99354.56;;;15.42;75.80
52927;BME280;40783;49.710;8.842;2022-09-01T04:44:22;99358.72;;;15.45;75.85
52927;BME280;40783;49.710;8.842;2022-09-01T04:46:49;99361.34;;;15.23;76.86
52927;BME280;40783;49.710;8.842;2022-09-01T04:49:19;99358.06;;;14.75;77.85
52927;BME280;40783;49.710;8.842;2022-09-01T04:51:49;99364.94;;;14.46;80.51
52927;BME280;40783;49.710;8.842;2022-09-01T04:54:17;99363.78;;;14.72;78.54
52927;BME280;40783;49.710;8.842;2022-09-01T04:56:46;99361.19;;;15.02;77.49
52927;BME280;40783;49.710;8.842;2022-09-01T04:59:18;99364.19;;;15.22;76.96
52927;BME280;40783;49.710;8.842;2022-09-01T05:01:45;99367.91;;;14.28;83.09
52927;BME280;40783;49.710;8.842;2022-09-01T05:04:19;99368.75;;;14.83;78.95
52927;BME280;40783;49.710;8.842;2022-09-01T05:06:49;99362.78;;;15.11;77.99
52927;BME280;40783;49.710;8.842;2022-09-01T05:09:20;99364.00;;;14.85;78.49
52927;BME280;40783;49.710;8.842;2022-09-01T05:11:49;99364.47;;;15.12;78.86
52927;BME280;40783;49.710;8.842;2022-09-01T05:14:15;99360.44;;;14.69;80.26
52927;BME280;40783;49.710;8.842;2022-09-01T05:16:43;99368.09;;;14.81;80.36
52927;BME280;40783;49.710;8.842;2022-09-01T05:19:09;99358.75;;;14.92;80.44
52927;BME280;40783;49.710;8.842;2022-09-01T05:21:46;99360.69;;;14.83;80.68
52927;BME280;40783;49.710;8.842;2022-09-01T05:24:17;99353.22;;;14.85;80.69
52927;BME280;40783;49.710;8.842;2022-09-01T05:26:46;99357.19;;;14.97;80.94
52927;BME280;40783;49.710;8.842;2022-09-01T05:29:15;99360.97;;;15.41;77.53
52927;BME280;40783;49.710;8.842;2022-09-01T05:31:43;99368.59;;;15.68;76.05
52927;BME280;40783;49.710;8.842;2022-09-01T05:34:10;99370.09;;;15.85;76.55
52927;BME280;40783;49.710;8.842;2022-09-01T05:36:41;99367.06;;;15.89;76.31
52927;BME280;40783;49.710;8.842;2022-09-01T05:39:07;99364.88;;;15.99;76.54
52927;BME280;40783;49.710;8.842;2022-09-01T05:41:35;99364.69;;;15.85;76.95
52927;BME280;40783;49.710;8.842;2022-09-01T05:44:02;99364.47;;;15.12;80.94
52927;BME280;40783;49.710;8.842;2022-09-01T05:46:33;99368.41;;;15.24;79.56
52927;BME280;40783;49.710;8.842;2022-09-01T05:48:59;99364.50;;;15.42;80.48
52927;BME280;40783;49.710;8.842;2022-09-01T05:51:27;99373.25;;;15.74;77.41
52927;BME280;40783;49.710;8.842;2022-09-01T05:53:59;99376.16;;;16.02;75.03
52927;BME280;40783;49.710;8.842;2022-09-01T05:56:25;99374.44;;;16.16;74.87
52927;BME280;40783;49.710;8.842;2022-09-01T05:58:58;99372.53;;;16.32;73.80
52927;BME280;40783;49.710;8.842;2022-09-01T06:01:26;99374.00;;;16.35;73.90
52927;BME280;40783;49.710;8.842;2022-09-01T06:03:58;99374.00;;;16.35;74.91
52927;BME280;40783;49.710;8.842;2022-09-01T06:06:38;99382.69;;;16.30;75.46
52927;BME280;40783;49.710;8.842;2022-09-01T06:09:06;99376.97;;;16.40;74.26
52927;BME280;40783;49.710;8.842;2022-09-01T06:11:34;99375.38;;;16.45;74.33
52927;BME280;40783;49.710;8.842;2022-09-01T06:14:03;99384.22;;;15.57;81.64
52927;BME280;40783;49.710;8.842;2022-09-01T06:16:30;99382.25;;;16.11;76.93
52927;BME280;40783;49.710;8.842;2022-09-01T06:18:56;99374.88;;;16.35;75.01
52927;BME280;40783;49.710;8.842;2022-09-01T06:21:25;99380.84;;;16.52;75.43
52927;BME280;40783;49.710;8.842;2022-09-01T06:23:55;99378.09;;;16.67;75.42
52927;BME280;40783;49.710;8.842;2022-09-01T06:26:34;99378.59;;;16.56;77.45
52927;BME280;40783;49.710;8.842;2022-09-01T06:29:04;99374.63;;;15.85;81.17
52927;BME280;40783;49.710;8.842;2022-09-01T06:31:32;99375.88;;;16.34;77.06
52927;BME280;40783;49.710;8.842;2022-09-01T06:34:07;99379.00;;;16.74;76.58
52927;BME280;40783;49.710;8.842;2022-09-01T06:36:37;99376.94;;;16.76;75.97
52927;BME280;40783;49.710;8.842;2022-09-01T06:39:05;99370.03;;;16.96;74.49
52927;BME280;40783;49.710;8.842;2022-09-01T06:41:31;99372.69;;;17.11;73.98
52927;BME280;40783;49.710;8.842;2022-09-01T06:43:59;99375.75;;;17.29;75.13
52927;BME280;40783;49.710;8.842;2022-09-01T06:46:25;99360.84;;;17.40;76.00
52927;BME280;40783;49.710;8.842;2022-09-01T06:48:52;99370.50;;;17.56;72.74
52927;BME280;40783;49.710;8.842;2022-09-01T06:51:26;99372.19;;;17.57;72.67
52927;BME280;40783;49.710;8.842;2022-09-01T06:53:56;99378.69;;;17.70;73.42
52927;BME280;40783;49.710;8.842;2022-09-01T06:56:25;99385.56;;;16.65;81.22
52927;BME280;40783;49.710;8.842;2022-09-01T06:58:53;99377.31;;;17.17;77.18
52927;BME280;40783;49.710;8.842;2022-09-01T07:01:18;99379.03;;;17.88;74.74
52927;BME280;40783;49.710;8.842;2022-09-01T07:03:52;99384.03;;;17.91;74.47
52927;BME280;40783;49.710;8.842;2022-09-01T07:06:20;99367.78;;;17.91;76.49
52927;BME280;40783;49.710;8.842;2022-09-01T07:08:53;99382.97;;;17.50;78.01
52927;BME280;40783;49.710;8.842;2022-09-01T07:11:22;99377.78;;;17.91;76.76
52927;BME280;40783;49.710;8.842;2022-09-01T07:13:56;99380.69;;;17.89;76.85
52927;BME280;40783;49.710;8.842;2022-09-01T07:16:27;99383.53;;;17.74;76.57
52927;BME280;40783;49.710;8.842;2022-09-01T07:18:55;99386.78;;;17.63;76.52
52927;BME280;40783;49.710;8.842;2022-09-01T07:21:22;99390.75;;;18.02;75.99
52927;BME280;40783;49.710;8.842;2022-09-01T07:23:48;99391.16;;;18.54;73.79
52927;BME280;40783;49.710;8.842;2022-09-01T07:26:18;99379.84;;;18.31;74.42
52927;BME280;40783;49.710;8.842;2022-09-01T07:28:49;99390.44;;;18.26;73.47
52927;BME280;40783;49.710;8.842;2022-09-01T07:31:17;99399.44;;;18.33;74.17
52927;BME280;40783;49.710;8.842;2022-09-01T07:33:45;99398.50;;;18.81;71.61
52927;BME280;40783;49.710;8.842;2022-09-01T07:36:14;99400.38;;;19.68;69.56
52927;BME280;40783;49.710;8.842;2022-09-01T07:38:39;99396.16;;;20.83;63.11
52927;BME280;40783;49.710;8.842;2022-09-01T07:41:10;99397.25;;;19.64;67.79
52927;BME280;40783;49.710;8.842;2022-09-01T07:43:39;99402.25;;;18.87;71.32
52927;BME280;40783;49.710;8.842;2022-09-01T07:46:09;99400.56;;;18.72;71.89
52927;BME280;40783;49.710;8.842;2022-09-01T07:48:34;99399.69;;;18.51;73.25
52927;BME280;40783;49.710;8.842;2022-09-01T07:51:00;99398.84;;;18.58;72.42
52927;BME280;40783;49.710;8.842;2022-09-01T07:53:30;99401.38;;;18.52;72.50
52927;BME280;40783;49.710;8.842;2022-09-01T07:55:59;99406.28;;;18.29;72.55
52927;BME280;40783;49.710;8.842;2022-09-01T07:58:29;99397.47;;;18.13;73.41
52927;BME280;40783;49.710;8.842;2022-09-01T08:00:55;99403.78;;;18.27;72.56
52927;BME280;40783;49.710;8.842;2022-09-01T08:03:23;99406.94;;;17.95;73.95
52927;BME280;40783;49.710;8.842;2022-09-01T08:05:51;99413.31;;;18.16;72.95
52927;BME280;40783;49.710;8.842;2022-09-01T08:08:22;99402.53;;;18.30;73.31
52927;BME280;40783;49.710;8.842;2022-09-01T08:10:48;99408.94;;;18.15;73.09
52927;BME280;40783;49.710;8.842;2022-09-01T08:13:16;99411.91;;;18.34;72.64
52927;BME280;40783;49.710;8.842;2022-09-01T08:15:42;99410.06;;;18.41;71.96
52927;BME280;40783;49.710;8.842;2022-09-01T08:18:08;99405.47;;;18.42;72.01
52927;BME280;40783;49.710;8.842;2022-09-01T08:20:38;99408.06;;;18.70;72.17
52927;BME280;40783;49.710;8.842;2022-09-01T08:23:14;99407.06;;;18.84;70.50
52927;BME280;40783;49.710;8.842;2022-09-01T08:25:42;99406.06;;;18.99;71.75
52927;BME280;40783;49.710;8.842;2022-09-01T08:28:13;99410.22;;;19.08;70.25
52927;BME280;40783;49.710;8.842;2022-09-01T08:30:41;99410.66;;;19.12;70.32
52927;BME280;40783;49.710;8.842;2022-09-01T08:33:07;99407.72;;;19.27;68.30
52927;BME280;40783;49.710;8.842;2022-09-01T08:35:39;99409.38;;;19.35;67.89
52927;BME280;40783;49.710;8.842;2022-09-01T08:38:05;99413.56;;;19.24;68.53
52927;BME280;40783;49.710;8.842;2022-09-01T08:40:30;99407.28;;;19.37;68.46
52927;BME280;40783;49.710;8.842;2022-09-01T08:43:19;99403.97;;;19.55;67.52
52927;BME280;40783;49.710;8.842;2022-09-01T08:45:52;99410.22;;;19.35;68.46
52927;BME280;40783;49.710;8.842;2022-09-01T08:48:38;99406.88;;;19.60;68.19
52927;BME280;40783;49.710;8.842;2022-09-01T08:51:24;99415.16;;;19.79;69.03
52927;BME280;40783;49.710;8.842;2022-09-01T08:57:08;99403.09;;;19.61;67.55
52927;BME280;40783;49.710;8.842;2022-09-01T08:59:37;99407.31;;;19.30;69.03
52927;BME280;40783;49.710;8.842;2022-09-01T09:10:18;99414.81;;;19.28;69.97
52927;BME280;40783;49.710;8.842;2022-09-01T09:13:09;99407.72;;;19.40;68.53
52927;BME280;40783;49.710;8.842;2022-09-01T09:15:59;99408.91;;;19.71;68.06
52927;BME280;40783;49.710;8.842;2022-09-01T09:21:21;99405.59;;;19.76;66.98
52927;BME280;40783;49.710;8.842;2022-09-01T09:23:58;99413.91;;;20.01;66.31
52927;BME280;40783;49.710;8.842;2022-09-01T09:26:24;99403.47;;;19.98;66.17
52927;BME280;40783;49.710;8.842;2022-09-01T09:28:49;99405.94;;;20.07;65.99
52927;BME280;40783;49.710;8.842;2022-09-01T09:31:48;99398.03;;;19.92;65.02
52927;BME280;40783;49.710;8.842;2022-09-01T09:34:36;99386.31;;;20.05;64.77
52927;BME280;40783;49.710;8.842;2022-09-01T09:42:32;99379.81;;;20.12;65.00
52927;BME280;40783;49.710;8.842;2022-09-01T09:44:58;99388.41;;;20.02;64.22
52927;BME280;40783;49.710;8.842;2022-09-01T09:52:43;99391.28;;;20.14;62.25
52927;BME280;40783;49.710;8.842;2022-09-01T09:55:28;99387.13;;;20.05;62.59
52927;BME280;40783;49.710;8.842;2022-09-01T09:57:57;99384.03;;;19.88;62.37
52927;BME280;40783;49.710;8.842;2022-09-01T10:00:27;99389.03;;;20.05;62.43
52927;BME280;40783;49.710;8.842;2022-09-01T10:02:57;99382.75;;;20.04;61.84
52927;BME280;40783;49.710;8.842;2022-09-01T10:05:36;99382.53;;;20.12;61.99
52927;BME280;40783;49.710;8.842;2022-09-01T10:08:06;99383.50;;;20.25;61.46
52927;BME280;40783;49.710;8.842;2022-09-01T10:13:03;99374.03;;;20.41;62.65
52927;BME280;40783;49.710;8.842;2022-09-01T10:15:31;99373.09;;;20.60;62.36
52927;BME280;40783;49.710;8.842;2022-09-01T10:18:05;99373.47;;;20.64;61.75
52927;BME280;40783;49.710;8.842;2022-09-01T10:20:33;99376.97;;;20.78;62.48
52927;BME280;40783;49.710;8.842;2022-09-01T10:23:00;99377.38;;;21.07;61.05
52927;BME280;40783;49.710;8.842;2022-09-01T10:25:27;99386.16;;;21.09;60.10
52927;BME280;40783;49.710;8.842;2022-09-01T10:27:57;99373.59;;;20.76;59.27
52927;BME280;40783;49.710;8.842;2022-09-01T10:30:24;99377.56;;;20.80;60.25
52927;BME280;40783;49.710;8.842;2022-09-01T10:32:52;99378.19;;;20.82;59.42
52927;BME280;40783;49.710;8.842;2022-09-01T10:35:30;99361.16;;;20.94;59.61
52927;BME280;40783;49.710;8.842;2022-09-01T10:38:02;99369.94;;;20.96;59.30
52927;BME280;40783;49.710;8.842;2022-09-01T10:43:24;99357.31;;;21.27;58.91
52927;BME280;40783;49.710;8.842;2022-09-01T10:45:52;99354.19;;;21.48;58.51
52927;BME280;40783;49.710;8.842;2022-09-01T10:50:47;99358.13;;;21.53;56.87
52927;BME280;40783;49.710;8.842;2022-09-01T10:59:28;99343.63;;;21.77;57.10
52927;BME280;40783;49.710;8.842;2022-09-01T11:05:08;99340.59;;;22.23;54.89
52927;BME280;40783;49.710;8.842;2022-09-01T11:09:46;99351.50;;;21.86;56.00
52927;BME280;40783;49.710;8.842;2022-09-01T11:15:48;99334.41;;;21.78;56.83
52927;BME280;40783;49.710;8.842;2022-09-01T11:20:26;99345.47;;;21.65;57.65
52927;BME280;40783;49.710;8.842;2022-09-01T11:23:19;99341.81;;;21.90;55.17
52927;BME280;40783;49.710;8.842;2022-09-01T11:25:54;99341.28;;;22.00;56.54
52927;BME280;40783;49.710;8.842;2022-09-01T11:52:18;99320.53;;;22.48;54.21
52927;BME280;40783;49.710;8.842;2022-09-01T11:54:48;99306.72;;;22.61;54.43
52927;BME280;40783;49.710;8.842;2022-09-01T11:57:27;99313.97;;;22.37;55.50
52927;BME280;40783;49.710;8.842;2022-09-01T11:59:56;99305.41;;;22.52;54.47
52927;BME280;40783;49.710;8.842;2022-09-01T12:02:25;99306.59;;;22.56;54.48
52927;BME280;40783;49.710;8.842;2022-09-01T12:04:54;99310.53;;;22.72;51.90
52927;BME280;40783;49.710;8.842;2022-09-01T12:07:38;99303.41;;;22.83;52.14
52927;BME280;40783;49.710;8.842;2022-09-01T12:10:27;99300.00;;;22.76;51.85
52927;BME280;40783;49.710;8.842;2022-09-01T12:15:39;99298.34;;;22.75;48.75
52927;BME280;40783;49.710;8.842;2022-09-01T12:20:46;99294.69;;;22.93;48.92
52927;BME280;40783;49.710;8.842;2022-09-01T12:25:50;99286.78;;;22.61;52.85
52927;BME280;40783;49.710;8.842;2022-09-01T12:28:21;99286.44;;;22.57;52.17
52927;BME280;40783;49.710;8.842;2022-09-01T12:30:50;99294.50;;;22.52;53.31
52927;BME280;40783;49.710;8.842;2022-09-01T12:33:19;99294.75;;;22.62;53.24
52927;BME280;40783;49.710;8.842;2022-09-01T12:35:47;99291.44;;;22.60;50.44
52927;BME280;40783;49.710;8.842;2022-09-01T12:40:50;99288.75;;;22.42;52.43
52927;BME280;40783;49.710;8.842;2022-09-01T12:45:55;99281.47;;;22.54;51.82
52927;BME280;40783;49.710;8.842;2022-09-01T12:48:28;99293.81;;;22.68;49.97
52927;BME280;40783;49.710;8.842;2022-09-01T12:51:03;99286.66;;;22.56;50.67
52927;BME280;40783;49.710;8.842;2022-09-01T12:53:32;99278.41;;;22.62;49.48
52927;BME280;40783;49.710;8.842;2022-09-01T12:56:01;99293.56;;;22.58;50.26
52927;BME280;40783;49.710;8.842;2022-09-01T12:58:30;99286.31;;;22.52;49.63
52927;BME280;40783;49.710;8.842;2022-09-01T13:01:06;99286.91;;;22.54;50.49
52927;BME280;40783;49.710;8.842;2022-09-01T13:03:34;99289.53;;;22.30;48.87
52927;BME280;40783;49.710;8.842;2022-09-01T13:06:01;99278.91;;;22.41;48.77
52927;BME280;40783;49.710;8.842;2022-09-01T13:08:30;99277.72;;;22.36;48.56
52927;BME280;40783;49.710;8.842;2022-09-01T13:13:32;99280.88;;;22.52;48.24
52927;BME280;40783;49.710;8.842;2022-09-01T13:16:01;99275.59;;;22.38;48.94
52927;BME280;40783;49.710;8.842;2022-09-01T13:18:32;99270.72;;;22.41;48.67
52927;BME280;40783;49.710;8.842;2022-09-01T13:20:59;99271.06;;;22.32;50.00
52927;BME280;40783;49.710;8.842;2022-09-01T13:23:25;99259.41;;;22.44;50.10
52927;BME280;40783;49.710;8.842;2022-09-01T13:25:54;99272.34;;;22.48;48.04
52927;BME280;40783;49.710;8.842;2022-09-01T13:28:25;99264.38;;;22.47;49.37
52927;BME280;40783;49.710;8.842;2022-09-01T13:30:57;99265.84;;;22.61;47.29
52927;BME280;40783;49.710;8.842;2022-09-01T13:33:24;99261.13;;;22.68;47.78
52927;BME280;40783;49.710;8.842;2022-09-01T13:35:50;99261.25;;;22.74;47.41
52927;BME280;40783;49.710;8.842;2022-09-01T13:38:21;99261.72;;;22.71;47.26
52927;BME280;40783;49.710;8.842;2022-09-01T13:40:48;99259.53;;;22.61;47.14
52927;BME280;40783;49.710;8.842;2022-09-01T13:43:16;99255.63;;;22.45;47.13
52927;BME280;40783;49.710;8.842;2022-09-01T13:45:41;99248.03;;;22.47;46.78
52927;BME280;40783;49.710;8.842;2022-09-01T13:48:07;99258.00;;;22.53;46.15
52927;BME280;40783;49.710;8.842;2022-09-01T13:50:34;99242.63;;;22.71;46.33
52927;BME280;40783;49.710;8.842;2022-09-01T13:53:00;99258.50;;;22.74;46.28
52927;BME280;40783;49.710;8.842;2022-09-01T13:55:28;99249.03;;;22.64;46.62
52927;BME280;40783;49.710;8.842;2022-09-01T13:57:54;99250.56;;;22.72;44.94
52927;BME280;40783;49.710;8.842;2022-09-01T14:00:25;99250.94;;;22.76;46.12
52927;BME280;40783;49.710;8.842;2022-09-01T14:02:58;99245.22;;;22.65;46.10
52927;BME280;40783;49.710;8.842;2022-09-01T14:05:33;99243.22;;;22.73;45.92
52927;BME280;40783;49.710;8.842;2022-09-01T14:07:59;99237.41;;;22.81;45.67
52927;BME280;40783;49.710;8.842;2022-09-01T14:10:27;99239.19;;;22.87;44.54
52927;BME280;40783;49.710;8.842;2022-09-01T14:12:54;99232.66;;;22.88;45.47
52927;BME280;40783;49.710;8.842;2022-09-01T14:15:22;99228.84;;;23.13;44.73
52927;BME280;40783;49.710;8.842;2022-09-01T14:17:50;99232.03;;;23.22;44.30
52927;BME280;40783;49.710;8.842;2022-09-01T14:20:22;99227.44;;;23.22;44.05
52927;BME280;40783;49.710;8.842;2022-09-01T14:22:51;99230.28;;;23.27;43.72
52927;BME280;40783;49.710;8.842;2022-09-01T14:25:18;99228.19;;;23.59;44.05
52927;BME280;40783;49.710;8.842;2022-09-01T14:27:45;99216.34;;;23.53;43.91
52927;BME280;40783;49.710;8.842;2022-09-01T14:30:15;99221.44;;;23.49;42.81
52927;BME280;40783;49.710;8.842;2022-09-01T14:32:43;99223.78;;;23.58;44.20
52927;BME280;40783;49.710;8.842;2022-09-01T14:35:09;99219.78;;;23.48;44.11
52927;BME280;40783;49.710;8.842;2022-09-01T14:37:36;99223.00;;;23.45;43.61
52927;BME280;40783;49.710;8.842;2022-09-01T14:40:03;99218.97;;;23.36;43.32
52927;BME280;40783;49.710;8.842;2022-09-01T14:42:29;99224.22;;;23.13;42.83
52927;BME280;40783;49.710;8.842;2022-09-01T14:44:57;99223.66;;;23.00;43.83
52927;BME280;40783;49.710;8.842;2022-09-01T14:47:23;99220.78;;;23.18;43.69
52927;BME280;40783;49.710;8.842;2022-09-01T14:49:51;99225.31;;;23.24;44.13
52927;BME280;40783;49.710;8.842;2022-09-01T14:52:19;99220.09;;;23.11;43.65
52927;BME280;40783;49.710;8.842;2022-09-01T14:54:48;99208.94;;;23.01;43.12